createdAt,value
2017-07-14T00:00:37.413Z,1013.49
2017-07-14T00:01:47.957Z,1013.5
2017-07-14T00:02:58.223Z,1013.54
2017-07-14T00:04:08.495Z,1013.52
2017-07-14T00:05:18.772Z,1013.55
2017-07-14T00:06:29.050Z,1013.52
2017-07-14T00:07:39.561Z,1013.49
2017-07-14T00:08:49.826Z,1013.47
2017-07-14T00:09:59.785Z,1013.47
2017-07-14T00:11:10.045Z,1013.46
2017-07-14T00:12:20.301Z,1013.45
2017-07-14T00:13:30.814Z,1013.46
2017-07-14T00:14:41.089Z,1013.46
2017-07-14T00:15:51.038Z,1013.44
2017-07-14T00:17:01.290Z,1013.45
2017-07-14T00:18:11.241Z,1013.39
2017-07-14T00:19:21.800Z,1013.41
2017-07-14T00:20:32.070Z,1013.4
2017-07-14T00:21:42.339Z,1013.41
2017-07-14T00:22:52.615Z,1013.41
2017-07-14T00:24:02.870Z,1013.39
2017-07-14T00:25:13.121Z,1013.4
2017-07-14T00:26:23.067Z,1013.41
2017-07-14T00:27:33.347Z,1013.4
2017-07-14T00:28:43.606Z,1013.37
2017-07-14T00:29:53.856Z,1013.38
2017-07-14T00:31:03.742Z,1013.37
2017-07-14T00:32:14.019Z,1013.43
2017-07-14T00:33:24.280Z,1013.37
2017-07-14T00:34:34.550Z,1013.38
2017-07-14T00:35:44.813Z,1013.4
2017-07-14T00:36:55.350Z,1013.39
2017-07-14T00:38:05.615Z,1013.36
2017-07-14T00:39:15.874Z,1013.34
2017-07-14T00:40:25.831Z,1013.37
2017-07-14T00:41:35.772Z,1013.35
2017-07-14T00:42:46.549Z,1013.33
2017-07-14T00:43:56.822Z,1013.31
2017-07-14T00:45:07.107Z,1013.29
2017-07-14T00:46:17.357Z,1013.28
2017-07-14T00:47:27.615Z,1013.29
2017-07-14T00:48:37.803Z,1013.28
2017-07-14T00:49:47.773Z,1013.24
2017-07-14T00:50:58.031Z,1013.24
2017-07-14T00:52:08.274Z,1013.22
2017-07-14T00:53:18.227Z,1013.2
2017-07-14T00:54:28.755Z,1013.18
2017-07-14T00:55:38.714Z,1013.22
2017-07-14T00:56:48.962Z,1013.17
2017-07-14T00:57:59.228Z,1013.19
2017-07-14T00:59:09.192Z,1013.18
2017-07-14T01:00:19.718Z,1013.16
2017-07-14T01:01:29.979Z,1013.16
2017-07-14T01:02:40.239Z,1013.17
2017-07-14T01:03:49.856Z,1013.14
2017-07-14T01:04:59.831Z,1013.16
2017-07-14T01:06:10.086Z,1013.17
2017-07-14T01:07:20.385Z,1013.13
2017-07-14T01:08:30.343Z,1013.13
2017-07-14T01:09:40.304Z,1013.1
2017-07-14T01:10:50.561Z,1013.11
2017-07-14T01:12:01.086Z,1013.08
2017-07-14T01:13:11.358Z,1013.08
2017-07-14T01:14:21.628Z,1013.1
2017-07-14T01:15:31.878Z,1013.08
2017-07-14T01:16:41.831Z,1013.06
2017-07-14T01:17:52.042Z,1013.1
2017-07-14T01:19:02.314Z,1013.09
2017-07-14T01:20:12.585Z,1013.08
2017-07-14T01:21:22.844Z,1013.04
2017-07-14T01:22:33.132Z,1013.04
2017-07-14T01:23:43.010Z,1013.07
2017-07-14T01:24:52.939Z,1013
2017-07-14T01:26:03.196Z,1013.01
2017-07-14T01:27:13.472Z,1012.98
2017-07-14T01:28:23.740Z,1012.99
2017-07-14T01:29:34.250Z,1012.99
2017-07-14T01:30:44.202Z,1012.98
2017-07-14T01:31:53.851Z,1013
2017-07-14T01:33:04.114Z,1012.97
2017-07-14T01:34:14.374Z,1012.99
2017-07-14T01:35:24.567Z,1012.96
2017-07-14T01:36:34.825Z,1013.02
2017-07-14T01:37:45.093Z,1013.03
2017-07-14T01:38:55.032Z,1012.99
2017-07-14T01:40:05.286Z,1013.01
2017-07-14T01:41:15.903Z,1013.02
2017-07-14T01:42:26.170Z,1013.02
2017-07-14T01:43:36.141Z,1013
2017-07-14T01:44:46.413Z,1013.01
2017-07-14T01:45:56.366Z,1013
2017-07-14T01:47:07.088Z,1012.98
2017-07-14T01:48:17.349Z,1013.02
2017-07-14T01:49:27.624Z,1013.02
2017-07-14T01:50:37.880Z,1012.95
2017-07-14T01:51:48.185Z,1012.95
2017-07-14T01:52:58.390Z,1012.94
2017-07-14T01:54:08.677Z,1012.95
2017-07-14T01:55:18.941Z,1012.98
2017-07-14T01:56:29.204Z,1012.95
2017-07-14T01:57:39.481Z,1012.93
2017-07-14T01:58:50.001Z,1012.9
2017-07-14T02:00:00.269Z,1012.93
2017-07-14T02:01:10.536Z,1012.92
2017-07-14T02:02:20.806Z,1012.9
2017-07-14T02:03:30.448Z,1012.91
2017-07-14T02:04:41.032Z,1012.88
2017-07-14T02:05:51.293Z,1012.87
2017-07-14T02:07:01.555Z,1012.88
2017-07-14T02:08:11.826Z,1012.88
2017-07-14T02:09:21.784Z,1012.82
2017-07-14T02:10:32.302Z,1012.81
2017-07-14T02:11:42.565Z,1012.79
2017-07-14T02:12:52.525Z,1012.76
2017-07-14T02:14:02.788Z,1012.78
2017-07-14T02:15:12.737Z,1012.73
2017-07-14T02:16:22.921Z,1012.76
2017-07-14T02:17:33.207Z,1012.74
2017-07-14T02:18:43.164Z,1012.69
2017-07-14T02:19:53.434Z,1012.71
2017-07-14T02:21:03.701Z,1012.67
2017-07-14T02:22:13.947Z,1012.71
2017-07-14T02:23:23.885Z,1012.69
2017-07-14T02:24:33.834Z,1012.69
2017-07-14T02:25:44.110Z,1012.69
2017-07-14T02:26:54.386Z,1012.72
2017-07-14T02:28:04.928Z,1012.68
2017-07-14T02:29:15.202Z,1012.74
2017-07-14T02:30:25.465Z,1012.71
2017-07-14T02:31:35.720Z,1012.71
2017-07-14T02:32:45.977Z,1012.74
2017-07-14T02:33:56.506Z,1012.7
2017-07-14T02:35:06.772Z,1012.7
2017-07-14T02:36:17.053Z,1012.75
2017-07-14T02:37:27.316Z,1012.76
2017-07-14T02:38:37.285Z,1012.78
2017-07-14T02:39:47.500Z,1012.73
2017-07-14T02:40:57.450Z,1012.71
2017-07-14T02:42:07.720Z,1012.75
2017-07-14T02:43:17.994Z,1012.71
2017-07-14T02:44:27.945Z,1012.7
2017-07-14T02:45:38.449Z,1012.72
2017-07-14T02:46:48.729Z,1012.73
2017-07-14T02:47:59.000Z,1012.69
2017-07-14T02:49:09.255Z,1012.69
2017-07-14T02:50:19.552Z,1012.66
2017-07-14T02:51:29.764Z,1012.66
2017-07-14T02:52:40.036Z,1012.66
2017-07-14T02:53:50.307Z,1012.69
2017-07-14T02:55:00.256Z,1012.68
2017-07-14T02:56:10.516Z,1012.68
2017-07-14T02:57:20.715Z,1012.65
2017-07-14T02:58:30.675Z,1012.61
2017-07-14T02:59:40.633Z,1012.64
2017-07-14T03:00:49.967Z,1012.62
2017-07-14T03:02:00.224Z,1012.6
2017-07-14T03:03:10.736Z,1012.57
2017-07-14T03:04:20.357Z,1012.55
2017-07-14T03:05:30.642Z,1012.59
2017-07-14T03:06:40.589Z,1012.57
2017-07-14T03:07:50.856Z,1012.52
2017-07-14T03:09:01.371Z,1012.53
2017-07-14T03:10:11.629Z,1012.57
2017-07-14T03:11:21.602Z,1012.58
2017-07-14T03:12:31.552Z,1012.57
2017-07-14T03:13:41.497Z,1012.55
2017-07-14T03:14:52.017Z,1012.56
2017-07-14T03:16:01.963Z,1012.54
2017-07-14T03:17:12.215Z,1012.56
2017-07-14T03:18:22.484Z,1012.53
2017-07-14T03:19:32.735Z,1012.5
2017-07-14T03:20:43.305Z,1012.48
2017-07-14T03:21:53.253Z,1012.51
2017-07-14T03:23:03.217Z,1012.51
2017-07-14T03:24:13.487Z,1012.55
2017-07-14T03:25:23.432Z,1012.57
2017-07-14T03:26:33.950Z,1012.54
2017-07-14T03:27:44.210Z,1012.55
2017-07-14T03:28:54.155Z,1012.52
2017-07-14T03:30:04.106Z,1012.55
2017-07-14T03:31:14.390Z,1012.53
2017-07-14T03:32:24.914Z,1012.55
2017-07-14T03:33:35.175Z,1012.51
2017-07-14T03:34:45.426Z,1012.54
2017-07-14T03:35:55.054Z,1012.49
2017-07-14T03:37:05.322Z,1012.53
2017-07-14T03:38:15.516Z,1012.53
2017-07-14T03:39:25.764Z,1012.53
2017-07-14T03:40:35.748Z,1012.53
2017-07-14T03:41:45.707Z,1012.55
2017-07-14T03:42:55.976Z,1012.52
2017-07-14T03:44:06.499Z,1012.51
2017-07-14T03:45:16.808Z,1012.52
2017-07-14T03:46:27.078Z,1012.5
2017-07-14T03:47:37.343Z,1012.52
2017-07-14T03:48:47.314Z,1012.52
2017-07-14T03:49:57.516Z,1012.47
2017-07-14T03:51:07.758Z,1012.53
2017-07-14T03:52:17.727Z,1012.48
2017-07-14T03:53:28.002Z,1012.52
2017-07-14T03:54:37.943Z,1012.46
2017-07-14T03:55:48.470Z,1012.47
2017-07-14T03:56:58.736Z,1012.5
2017-07-14T03:58:08.683Z,1012.51
2017-07-14T03:59:18.973Z,1012.51
2017-07-14T04:00:29.253Z,1012.55
2017-07-14T04:01:39.467Z,1012.54
2017-07-14T04:02:49.737Z,1012.54
2017-07-14T04:03:59.699Z,1012.53
2017-07-14T04:05:09.970Z,1012.54
2017-07-14T04:06:20.272Z,1012.55
2017-07-14T04:07:30.467Z,1012.52
2017-07-14T04:08:40.104Z,1012.49
2017-07-14T04:09:50.384Z,1012.5
2017-07-14T04:11:00.661Z,1012.46
2017-07-14T04:12:10.282Z,1012.48
2017-07-14T04:13:20.798Z,1012.49
2017-07-14T04:14:31.082Z,1012.48
2017-07-14T04:15:41.329Z,1012.47
2017-07-14T04:16:51.282Z,1012.44
2017-07-14T04:18:01.217Z,1012.44
2017-07-14T04:19:11.736Z,1012.47
2017-07-14T04:20:21.998Z,1012.45
2017-07-14T04:21:32.268Z,1012.43
2017-07-14T04:22:42.532Z,1012.4
2017-07-14T04:23:52.475Z,1012.43
2017-07-14T04:25:02.680Z,1012.4
2017-07-14T04:26:12.976Z,1012.44
2017-07-14T04:27:23.250Z,1012.43
2017-07-14T04:28:33.522Z,1012.44
2017-07-14T04:29:43.480Z,1012.37
2017-07-14T04:30:53.998Z,1012.37
2017-07-14T04:32:04.277Z,1012.41
2017-07-14T04:33:14.549Z,1012.4
2017-07-14T04:34:24.517Z,1012.4
2017-07-14T04:35:34.780Z,1012.38
2017-07-14T04:36:45.044Z,1012.38
2017-07-14T04:37:55.306Z,1012.42
2017-07-14T04:39:05.568Z,1012.41
2017-07-14T04:40:15.830Z,1012.38
2017-07-14T04:41:25.762Z,1012.42
2017-07-14T04:42:35.960Z,1012.38
2017-07-14T04:43:46.227Z,1012.4
2017-07-14T04:44:56.503Z,1012.38
2017-07-14T04:46:06.467Z,1012.36
2017-07-14T04:47:16.742Z,1012.35
2017-07-14T04:48:27.270Z,1012.37
2017-07-14T04:49:37.545Z,1012.38
2017-07-14T04:50:47.524Z,1012.37
2017-07-14T04:51:57.812Z,1012.33
2017-07-14T04:53:07.756Z,1012.35
2017-07-14T04:54:18.279Z,1012.31
2017-07-14T04:55:28.547Z,1012.34
2017-07-14T04:56:38.808Z,1012.29
2017-07-14T04:57:49.066Z,1012.29
2017-07-14T04:58:59.013Z,1012.26
2017-07-14T05:00:09.565Z,1012.26
2017-07-14T05:01:19.509Z,1012.27
2017-07-14T05:02:29.780Z,1012.26
2017-07-14T05:03:40.048Z,1012.23
2017-07-14T05:04:50.003Z,1012.25
2017-07-14T05:06:00.546Z,1012.2
2017-07-14T05:07:10.836Z,1012.21
2017-07-14T05:08:21.106Z,1012.16
2017-07-14T05:09:30.767Z,1012.18
2017-07-14T05:10:41.048Z,1012.16
2017-07-14T05:11:51.272Z,1012.12
2017-07-14T05:13:01.568Z,1012.13
2017-07-14T05:14:11.842Z,1012.12
2017-07-14T05:15:22.123Z,1012.11
2017-07-14T05:16:32.086Z,1012.07
2017-07-14T05:17:42.340Z,1012.06
2017-07-14T05:18:52.301Z,1012.05
2017-07-14T05:20:02.570Z,1012.07
2017-07-14T05:21:12.844Z,1012.06
2017-07-14T05:22:23.122Z,1012.05
2017-07-14T05:23:33.308Z,1012.05
2017-07-14T05:24:43.553Z,1012.11
2017-07-14T05:25:54.047Z,1012.07
2017-07-14T05:27:03.980Z,1012.11
2017-07-14T05:28:13.937Z,1012.14
2017-07-14T05:29:24.174Z,1012.15
2017-07-14T05:30:34.457Z,1012.14
2017-07-14T05:31:44.717Z,1012.12
2017-07-14T05:32:55.231Z,1012.1
2017-07-14T05:34:05.493Z,1012.15
2017-07-14T05:35:15.700Z,1012.17
2017-07-14T05:36:25.972Z,1012.15
2017-07-14T05:37:36.259Z,1012.17
2017-07-14T05:38:46.216Z,1012.12
2017-07-14T05:39:56.157Z,1012.13
2017-07-14T05:41:06.340Z,1012.12
2017-07-14T05:42:16.618Z,1012.11
2017-07-14T05:43:26.590Z,1012.12
2017-07-14T05:44:36.897Z,1012.12
2017-07-14T05:45:46.858Z,1012.12
2017-07-14T05:46:57.055Z,1012.16
2017-07-14T05:48:07.385Z,1012.13
2017-07-14T05:49:17.651Z,1012.13
2017-07-14T05:50:27.613Z,1012.14
2017-07-14T05:51:38.217Z,1012.14
2017-07-14T05:52:48.743Z,1012.11
2017-07-14T05:53:59.049Z,1012.14
2017-07-14T05:55:09.321Z,1012.13
2017-07-14T05:56:19.630Z,1012.13
2017-07-14T05:57:29.972Z,1012.16
2017-07-14T05:58:40.208Z,1012.1
2017-07-14T05:59:50.156Z,1012.13
2017-07-14T06:01:00.143Z,1012.12
2017-07-14T06:02:10.459Z,1012.13
2017-07-14T06:03:20.745Z,1012.09
2017-07-14T06:04:31.014Z,1012.12
2017-07-14T06:05:40.659Z,1012.16
2017-07-14T06:06:50.940Z,1012.12
2017-07-14T06:08:01.221Z,1012.09
2017-07-14T06:09:11.491Z,1012.1
2017-07-14T06:10:22.002Z,1012.07
2017-07-14T06:11:31.964Z,1012.07
2017-07-14T06:12:41.600Z,1012.06
2017-07-14T06:13:51.918Z,1012.08
2017-07-14T06:15:02.215Z,1012.12
2017-07-14T06:16:12.755Z,1012.1
2017-07-14T06:17:23.036Z,1012.08
2017-07-14T06:18:33.327Z,1012.08
2017-07-14T06:19:43.607Z,1012.13
2017-07-14T06:20:53.877Z,1012.1
2017-07-14T06:22:04.416Z,1012.07
2017-07-14T06:23:14.677Z,1012.06
2017-07-14T06:24:24.931Z,1012.07
2017-07-14T06:25:35.196Z,1012.09
2017-07-14T06:26:45.484Z,1012.1
2017-07-14T06:27:55.690Z,1012.06
2017-07-14T06:29:05.967Z,1012.02
2017-07-14T06:30:16.246Z,1012.04
2017-07-14T06:31:26.526Z,1012.07
2017-07-14T06:32:36.805Z,1012.08
2017-07-14T06:33:47.383Z,1012.08
2017-07-14T06:34:57.320Z,1012.1
2017-07-14T06:36:07.608Z,1012.08
2017-07-14T06:37:17.569Z,1012.06
2017-07-14T06:38:27.843Z,1012.08
2017-07-14T06:39:38.042Z,1012.08
2017-07-14T06:40:48.320Z,1012.09
2017-07-14T06:41:58.603Z,1012.1
2017-07-14T06:43:08.862Z,1012.07
2017-07-14T06:44:18.822Z,1012.06
2017-07-14T06:45:29.113Z,1012.06
2017-07-14T06:46:39.452Z,1012.06
2017-07-14T06:47:49.769Z,1012.08
2017-07-14T06:49:00.049Z,1012.09
2017-07-14T06:50:09.689Z,1012.07
2017-07-14T06:51:20.226Z,1012.09
2017-07-14T06:52:30.536Z,1012.04
2017-07-14T06:53:40.490Z,1012.04
2017-07-14T06:54:50.753Z,1012.04
2017-07-14T06:56:01.011Z,1012.05
2017-07-14T06:57:11.583Z,1012.06
2017-07-14T06:58:21.859Z,1012.05
2017-07-14T06:59:32.161Z,1012.02
2017-07-14T07:00:42.097Z,1011.97
2017-07-14T07:01:52.371Z,1012
2017-07-14T07:03:02.562Z,1012.01
2017-07-14T07:04:12.530Z,1011.97
2017-07-14T07:05:22.802Z,1012.01
2017-07-14T07:06:33.088Z,1011.98
2017-07-14T07:07:43.058Z,1011.98
2017-07-14T07:08:53.263Z,1011.95
2017-07-14T07:10:03.223Z,1011.95
2017-07-14T07:11:13.484Z,1011.93
2017-07-14T07:12:23.800Z,1011.92
2017-07-14T07:13:34.072Z,1011.96
2017-07-14T07:14:44.593Z,1011.91
2017-07-14T07:15:54.931Z,1011.92
2017-07-14T07:17:04.896Z,1011.93
2017-07-14T07:18:15.410Z,1011.95
2017-07-14T07:19:25.402Z,1011.89
2017-07-14T07:20:35.970Z,1011.93
2017-07-14T07:21:45.922Z,1011.87
2017-07-14T07:22:56.209Z,1011.88
2017-07-14T07:24:05.849Z,1011.93
2017-07-14T07:25:15.791Z,1011.87
2017-07-14T07:26:26.360Z,1011.86
2017-07-14T07:27:36.017Z,1011.88
2017-07-14T07:28:46.311Z,1011.84
2017-07-14T07:29:56.574Z,1011.86
2017-07-14T07:31:06.849Z,1011.86
2017-07-14T07:32:17.075Z,1011.84
2017-07-14T07:33:27.035Z,1011.84
2017-07-14T07:34:37.310Z,1011.84
2017-07-14T07:35:47.586Z,1011.86
2017-07-14T07:36:57.871Z,1011.82
2017-07-14T07:38:08.402Z,1011.79
2017-07-14T07:39:18.685Z,1011.81
2017-07-14T07:40:28.651Z,1011.87
2017-07-14T07:41:38.930Z,1011.86
2017-07-14T07:42:48.908Z,1011.82
2017-07-14T07:43:59.447Z,1011.82
2017-07-14T07:45:09.757Z,1011.77
2017-07-14T07:46:20.033Z,1011.72
2017-07-14T07:47:30.357Z,1011.75
2017-07-14T07:48:40.668Z,1011.7
2017-07-14T07:49:50.899Z,1011.73
2017-07-14T07:51:00.547Z,1011.74
2017-07-14T07:52:10.817Z,1011.74
2017-07-14T07:53:21.099Z,1011.72
2017-07-14T07:54:31.094Z,1011.68
2017-07-14T07:55:41.630Z,1011.69
2017-07-14T07:56:51.924Z,1011.68
2017-07-14T07:58:01.906Z,1011.7
2017-07-14T07:59:11.897Z,1011.65
2017-07-14T08:00:22.421Z,1011.63
2017-07-14T08:01:32.963Z,1011.66
2017-07-14T08:02:42.932Z,1011.63
2017-07-14T08:03:53.203Z,1011.65
2017-07-14T08:05:03.479Z,1011.66
2017-07-14T08:06:13.114Z,1011.64
2017-07-14T08:07:23.696Z,1011.64
2017-07-14T08:08:33.966Z,1011.64
2017-07-14T08:09:43.914Z,1011.65
2017-07-14T08:10:54.183Z,1011.62
2017-07-14T08:12:04.473Z,1011.62
2017-07-14T08:13:14.998Z,1011.59
2017-07-14T08:14:25.273Z,1011.6
2017-07-14T08:15:35.566Z,1011.58
2017-07-14T08:16:45.845Z,1011.62
2017-07-14T08:17:56.133Z,1011.58
2017-07-14T08:19:06.667Z,1011.57
2017-07-14T08:20:16.337Z,1011.62
2017-07-14T08:21:26.618Z,1011.6
2017-07-14T08:22:36.904Z,1011.65
2017-07-14T08:23:46.865Z,1011.62
2017-07-14T08:24:57.086Z,1011.64
2017-07-14T08:26:07.386Z,1011.63
2017-07-14T08:27:17.668Z,1011.63
2017-07-14T08:28:27.970Z,1011.57
2017-07-14T08:29:38.036Z,1011.59
2017-07-14T08:30:48.267Z,1011.58
2017-07-14T08:31:58.564Z,1011.57
2017-07-14T08:33:08.843Z,1011.55
2017-07-14T08:34:19.367Z,1011.52
2017-07-14T08:35:29.658Z,1011.54
2017-07-14T08:36:40.185Z,1011.52
2017-07-14T08:37:50.488Z,1011.56
2017-07-14T08:39:00.449Z,1011.56
2017-07-14T08:40:10.425Z,1011.53
2017-07-14T08:41:20.719Z,1011.55
2017-07-14T08:42:31.249Z,1011.56
2017-07-14T08:43:41.537Z,1011.56
2017-07-14T08:44:51.513Z,1011.49
2017-07-14T08:46:01.489Z,1011.5
2017-07-14T08:47:11.514Z,1011.49
2017-07-14T08:48:22.050Z,1011.54
2017-07-14T08:49:32.331Z,1011.51
2017-07-14T08:50:42.606Z,1011.47
2017-07-14T08:51:52.878Z,1011.49
2017-07-14T08:53:02.848Z,1011.48
2017-07-14T08:54:13.082Z,1011.51
2017-07-14T08:55:23.419Z,1011.52
2017-07-14T08:56:33.707Z,1011.48
2017-07-14T08:57:43.689Z,1011.57
2017-07-14T08:58:53.988Z,1011.52
2017-07-14T09:00:03.924Z,1011.46
2017-07-14T09:01:14.210Z,1011.42
2017-07-14T09:02:24.509Z,1011.44
2017-07-14T09:03:34.158Z,1011.41
2017-07-14T09:04:44.441Z,1011.43
2017-07-14T09:05:54.995Z,1011.43
2017-07-14T09:07:05.277Z,1011.41
2017-07-14T09:08:15.251Z,1011.44
2017-07-14T09:09:25.575Z,1011.39
2017-07-14T09:10:35.538Z,1011.41
2017-07-14T09:11:45.422Z,1011.39
2017-07-14T09:12:55.402Z,1011.38
2017-07-14T09:14:05.669Z,1011.46
2017-07-14T09:15:15.679Z,1011.39
2017-07-14T09:16:25.966Z,1011.37
2017-07-14T09:17:36.506Z,1011.35
2017-07-14T09:18:46.477Z,1011.38
2017-07-14T09:19:56.808Z,1011.36
2017-07-14T09:21:06.779Z,1011.3
2017-07-14T09:22:16.741Z,1011.35
2017-07-14T09:23:27.305Z,1011.34
2017-07-14T09:24:37.272Z,1011.36
2017-07-14T09:25:47.553Z,1011.32
2017-07-14T09:26:57.852Z,1011.28
2017-07-14T09:28:07.829Z,1011.24
2017-07-14T09:29:18.040Z,1011.26
2017-07-14T09:30:28.330Z,1011.24
2017-07-14T09:31:37.979Z,1011.23
2017-07-14T09:32:48.276Z,1011.19
2017-07-14T09:33:58.561Z,1011.22
2017-07-14T09:35:09.082Z,1011.25
2017-07-14T09:36:18.740Z,1011.24
2017-07-14T09:37:28.727Z,1011.24
2017-07-14T09:38:39.009Z,1011.22
2017-07-14T09:39:49.301Z,1011.23
2017-07-14T09:40:59.852Z,1011.24
2017-07-14T09:42:10.154Z,1011.2
2017-07-14T09:43:20.441Z,1011.19
2017-07-14T09:44:30.416Z,1011.18
2017-07-14T09:45:40.696Z,1011.21
2017-07-14T09:46:51.228Z,1011.19
2017-07-14T09:48:01.198Z,1011.25
2017-07-14T09:49:11.487Z,1011.18
2017-07-14T09:50:21.455Z,1011.17
2017-07-14T09:51:31.734Z,1011.2
2017-07-14T09:52:42.271Z,1011.22
2017-07-14T09:53:52.231Z,1011.25
2017-07-14T09:55:02.564Z,1011.22
2017-07-14T09:56:12.871Z,1011.22
2017-07-14T09:57:23.181Z,1011.23
2017-07-14T09:58:33.704Z,1011.15
2017-07-14T09:59:43.360Z,1011.15
2017-07-14T10:00:53.679Z,1011.18
2017-07-14T10:02:03.977Z,1011.11
2017-07-14T10:03:14.263Z,1011.16
2017-07-14T10:04:24.805Z,1011.17
2017-07-14T10:05:35.089Z,1011.13
2017-07-14T10:06:45.375Z,1011.11
2017-07-14T10:07:55.669Z,1011.12
2017-07-14T10:09:05.951Z,1011.14
2017-07-14T10:10:16.480Z,1011.18
2017-07-14T10:11:26.469Z,1011.16
2017-07-14T10:12:36.751Z,1011.1
2017-07-14T10:13:46.398Z,1011.12
2017-07-14T10:14:56.652Z,1011.13
2017-07-14T10:16:07.209Z,1011.17
2017-07-14T10:17:17.520Z,1011.1
2017-07-14T10:18:27.796Z,1011.09
2017-07-14T10:19:38.055Z,1011.14
2017-07-14T10:20:48.344Z,1011.14
2017-07-14T10:21:58.898Z,1011.15
2017-07-14T10:23:08.861Z,1011.11
2017-07-14T10:24:19.140Z,1011.1
2017-07-14T10:25:29.105Z,1011.06
2017-07-14T10:26:39.069Z,1011.13
2017-07-14T10:27:49.650Z,1011.1
2017-07-14T10:28:59.937Z,1011.13
2017-07-14T10:30:10.215Z,1011.1
2017-07-14T10:31:20.512Z,1011.11
2017-07-14T10:32:30.803Z,1011.08
2017-07-14T10:33:41.318Z,1011.1
2017-07-14T10:34:51.587Z,1011.15
2017-07-14T10:36:01.858Z,1011.14
2017-07-14T10:37:11.832Z,1011.12
2017-07-14T10:38:22.135Z,1011.14
2017-07-14T10:39:32.677Z,1011.1
2017-07-14T10:40:42.339Z,1011.04
2017-07-14T10:41:52.311Z,1011.03
2017-07-14T10:43:02.585Z,1011.06
2017-07-14T10:44:12.233Z,1011.04
2017-07-14T10:45:22.438Z,1011.06
2017-07-14T10:46:32.814Z,1011.07
2017-07-14T10:47:42.776Z,1011.06
2017-07-14T10:48:52.775Z,1011.03
2017-07-14T10:50:02.732Z,1011.06
2017-07-14T10:51:13.264Z,1011.01
2017-07-14T10:52:23.535Z,1011.09
2017-07-14T10:53:33.830Z,1011.07
2017-07-14T10:54:44.257Z,1011.08
2017-07-14T10:55:54.215Z,1011.02
2017-07-14T10:57:04.771Z,1011.05
2017-07-14T10:58:14.735Z,1011.01
2017-07-14T10:59:24.688Z,1010.99
2017-07-14T11:00:34.977Z,1010.98
2017-07-14T11:01:44.978Z,1011.02
2017-07-14T11:02:55.533Z,1010.98
2017-07-14T11:04:05.828Z,1010.99
2017-07-14T11:05:16.104Z,1011
2017-07-14T11:06:25.742Z,1011.04
2017-07-14T11:07:36.038Z,1011.1
2017-07-14T11:08:46.580Z,1011.04
2017-07-14T11:09:56.540Z,1011.07
2017-07-14T11:11:06.824Z,1011.05
2017-07-14T11:12:17.116Z,1011.07
2017-07-14T11:13:27.381Z,1011.02
2017-07-14T11:14:37.291Z,1010.95
2017-07-14T11:15:46.965Z,1010.99
2017-07-14T11:16:56.941Z,1010.94
2017-07-14T11:18:07.229Z,1010.99
2017-07-14T11:19:17.525Z,1011.01
2017-07-14T11:20:27.476Z,1010.91
2017-07-14T11:21:37.776Z,1010.95
2017-07-14T11:22:48.048Z,1010.94
2017-07-14T11:23:58.316Z,1010.92
2017-07-14T11:25:08.583Z,1010.92
2017-07-14T11:26:19.129Z,1010.86
2017-07-14T11:27:29.422Z,1010.86
2017-07-14T11:28:39.745Z,1010.8
2017-07-14T11:29:50.069Z,1010.76
2017-07-14T11:31:00.396Z,1010.77
2017-07-14T11:32:10.937Z,1010.76
2017-07-14T11:33:20.952Z,1010.67
2017-07-14T11:34:31.273Z,1010.63
2017-07-14T11:35:41.260Z,1010.64
2017-07-14T11:36:51.554Z,1010.67
2017-07-14T11:38:01.811Z,1010.69
2017-07-14T11:39:12.119Z,1010.7
2017-07-14T11:40:21.777Z,1010.71
2017-07-14T11:41:32.056Z,1010.69
2017-07-14T11:42:42.026Z,1010.65
2017-07-14T11:43:52.557Z,1010.62
2017-07-14T11:45:02.846Z,1010.64
2017-07-14T11:46:13.128Z,1010.63
2017-07-14T11:47:23.425Z,1010.65
2017-07-14T11:48:33.708Z,1010.53
2017-07-14T11:49:43.933Z,1010.62
2017-07-14T11:50:54.225Z,1010.64
2017-07-14T11:52:04.540Z,1010.55
2017-07-14T11:53:14.539Z,1010.56
2017-07-14T11:54:24.831Z,1010.58
2017-07-14T11:55:35.057Z,1010.51
2017-07-14T11:56:45.358Z,1010.53
2017-07-14T11:57:55.626Z,1010.55
2017-07-14T11:59:05.609Z,1010.51
2017-07-14T12:00:15.886Z,1010.41
2017-07-14T12:01:26.129Z,1010.42
2017-07-14T12:02:35.759Z,1010.41
2017-07-14T12:03:46.034Z,1010.44
2017-07-14T12:04:56.009Z,1010.44
2017-07-14T12:06:06.292Z,1010.39
2017-07-14T12:07:16.960Z,1010.35
2017-07-14T12:08:27.254Z,1010.33
2017-07-14T12:09:37.538Z,1010.3
2017-07-14T12:10:47.809Z,1010.28
2017-07-14T12:11:57.466Z,1010.3
2017-07-14T12:13:07.687Z,1010.26
2017-07-14T12:14:17.644Z,1010.28
2017-07-14T12:15:27.912Z,1010.27
2017-07-14T12:16:38.214Z,1010.33
2017-07-14T12:17:47.550Z,1010.24
2017-07-14T12:18:57.776Z,1010.19
2017-07-14T12:20:07.732Z,1010.22
2017-07-14T12:21:17.684Z,1010.17
2017-07-14T12:22:27.014Z,1010.15
2017-07-14T12:23:37.290Z,1010.19
2017-07-14T12:24:47.803Z,1010.16
2017-07-14T12:25:57.450Z,1010.13
2017-07-14T12:27:07.717Z,1010.25
2017-07-14T12:28:17.999Z,1010.28
2017-07-14T12:29:28.278Z,1010.27
2017-07-14T12:30:38.179Z,1010.22
2017-07-14T12:31:48.147Z,1010.16
2017-07-14T12:32:58.441Z,1010.15
2017-07-14T12:34:08.732Z,1010.12
2017-07-14T12:35:19.034Z,1010.17
2017-07-14T12:36:29.579Z,1010.18
2017-07-14T12:37:39.222Z,1010.16
2017-07-14T12:38:49.189Z,1010.1
2017-07-14T12:39:59.469Z,1010.07
2017-07-14T12:41:09.133Z,1010.11
2017-07-14T12:42:19.700Z,1010.12
2017-07-14T12:43:29.989Z,1010.09
2017-07-14T12:44:40.278Z,1010.08
2017-07-14T12:45:49.938Z,1010.09
2017-07-14T12:47:00.219Z,1010.04
2017-07-14T12:48:10.813Z,1010.03
2017-07-14T12:49:21.109Z,1010.05
2017-07-14T12:50:31.401Z,1010.07
2017-07-14T13:00:13.859Z,1009.92
2017-07-14T13:01:23.865Z,1009.92
2017-07-14T13:02:33.821Z,1009.93
2017-07-14T13:03:44.103Z,1009.88
2017-07-14T13:04:54.005Z,1009.96
2017-07-14T13:06:03.632Z,1009.9
2017-07-14T13:07:13.939Z,1009.87
2017-07-14T13:08:24.249Z,1009.82
2017-07-14T13:09:34.538Z,1009.93
2017-07-14T13:10:45.069Z,1009.89
2017-07-14T13:11:55.359Z,1009.89
2017-07-14T13:13:05.336Z,1009.84
2017-07-14T13:14:15.316Z,1009.95
2017-07-14T13:15:25.258Z,1009.97
2017-07-14T13:16:35.483Z,1009.9
2017-07-14T13:17:45.783Z,1009.89
2017-07-14T13:18:56.073Z,1009.9
2017-07-14T13:20:06.342Z,1009.91
2017-07-14T13:21:16.627Z,1009.84
2017-07-14T13:22:27.110Z,1009.84
2017-07-14T13:23:37.378Z,1009.87
2017-07-14T13:24:47.691Z,1009.86
2017-07-14T13:25:57.667Z,1009.91
2017-07-14T13:27:07.945Z,1009.85
2017-07-14T13:28:18.488Z,1009.83
2017-07-14T13:29:28.777Z,1009.83
2017-07-14T13:30:39.057Z,1009.79
2017-07-14T13:31:49.019Z,1009.82
2017-07-14T13:32:59.306Z,1009.88
2017-07-14T13:34:09.837Z,1009.82
2017-07-14T13:35:19.820Z,1009.82
2017-07-14T13:36:30.112Z,1009.82
2017-07-14T13:37:40.079Z,1009.83
2017-07-14T13:38:50.379Z,1009.87
2017-07-14T13:40:00.621Z,1009.85
2017-07-14T13:41:10.588Z,1009.82
2017-07-14T13:42:20.857Z,1009.79
2017-07-14T13:43:31.158Z,1009.86
2017-07-14T13:44:41.424Z,1009.79
2017-07-14T13:45:51.654Z,1009.81
2017-07-14T13:47:01.612Z,1009.76
2017-07-14T13:48:11.910Z,1009.76
2017-07-14T13:49:21.873Z,1009.75
2017-07-14T13:50:31.842Z,1009.68
2017-07-14T13:51:42.072Z,1009.68
2017-07-14T13:52:52.379Z,1009.72
2017-07-14T13:54:02.334Z,1009.68
2017-07-14T13:55:12.606Z,1009.68
2017-07-14T13:56:22.875Z,1009.65
2017-07-14T13:57:33.423Z,1009.67
2017-07-14T13:58:43.403Z,1009.62
2017-07-14T13:59:53.671Z,1009.62
2017-07-14T14:01:03.631Z,1009.65
2017-07-14T14:02:13.602Z,1009.65
2017-07-14T14:03:23.850Z,1009.69
2017-07-14T14:04:33.829Z,1009.72
2017-07-14T14:05:44.091Z,1009.74
2017-07-14T14:06:53.775Z,1009.73
2017-07-14T14:08:04.038Z,1009.75
2017-07-14T14:09:14.247Z,1009.75
2017-07-14T14:10:23.913Z,1009.72
2017-07-14T14:11:34.257Z,1009.77
2017-07-14T14:12:44.221Z,1009.72
2017-07-14T14:13:54.505Z,1009.78
2017-07-14T14:15:04.428Z,1009.71
2017-07-14T14:16:14.731Z,1009.74
2017-07-14T14:17:24.700Z,1009.68
2017-07-14T14:18:34.994Z,1009.69
2017-07-14T14:19:44.951Z,1009.66
2017-07-14T14:20:55.519Z,1009.65